Terminal Aerodrome Forecast
Issued by NWS

Home | Current Version | Previous Version | Text Only | Print | Product List | Glossary On
Versions: 1 2 3 4 5 6 7 8 9 10 11 12 13 14 15 16 17 18
000
FTUS45 KBOI 240120 AAA
TAFTWF
TAF AMD
KTWF 240120Z 2401/2424 24022G30KT 5SM BR OVC035
      TEMPO 2401/2404 3SM -SHSN BR OVC025
     FM240600 24015G25KT 3SM -SHSN OVC010
     FM241400 23022G30KT P6SM OVC050=

USA.gov is the U.S. government's official web portal to all federal, state and local government web resources and services.